BBJ weather

Bitburg Airport
Bitburg, Rhineland-Palatinate, Germany

Public forecast

Using degrees Celsius for public forecast. Weather courtesy of forecast.io.

METAR (pilot weather report)

Closest report is Spangdahlem Air Base, 5.2 nm (9.6 km) ENE. Retrieved 2019/07/21 01:56 UTC (20 minutes ago):

ETAD 210156Z AUTO 27004KT 9999 SCT110 17/14 A3006 RMK AO2 SLP155 T01710142

TAF (pilot weather forecast)

Forecast is more than 12 hours old.

Closest forecast is Spangdahlem Air Base, 5.2 nm (9.6 km) ENE. Retrieved 2019/07/20 12:15 UTC (14 hours ago):

TAF ETAD 201200Z 2012/2118 20010KT 9999 SCT050 SCT180 QNH2989INS TEMPO 2014/2018 24015G25KT 8000 -TSRA BKN040CB BECMG 2017/2018 26008KT 9999 BKN040 QNH2994INS BECMG 2023/2024 27004KT 8000 BR FEW005 SCT040 QNH3004INS TX28/2014Z TN14/2104Z